Flugplatz Paderborn-Haxterberg

Für EDLR sind keine METAR/TAF Berichte vorhanden.
Es werden die Flugwettermeldungen vom Flugplatz Paderborn Lippstadt in 13 km Entfernung angezeigt.

Bericht für EDLP

vom 10.04. um 11:20 UTC

Wind 9 kt aus 120°

Sichtweite 10 km oder mehr

aufgebrochene Bewölkung in 2300 ft

aufgebrochene Bewölkung in 4100 ft

Temperatur 10.0°C

Taupunkt 4.0°C

Luftfeuchtigkeit 66%

Luftdruck 1014 hPa

EDLP 101120Z 12009KT 080V150 9999 BKN023 BKN041 10/04 Q1014

Prognose für EDLP

vom 10.04. um 11:00 UTC

Zwischen 12:00 UTC und 23:00 UTC

Wind 4 kt aus 90°

Sichtweite 8000 m

aufgebrochene Bewölkung in 2000 ft


Zwischen 12:00 UTC und 03:00 UTC zeitweise

Sichtweite 4000 m

Regen

aufgebrochene Bewölkung in 1000 ft


Zwischen 23:00 und 03:00 UTC übergehend zu

Wind 8 kt aus 210°

Sichtweite 8000 m

aufgebrochene Bewölkung in 2000 ft


Am 11.04. zwischen 03:00 und 06:00 UTC übergehend zu

Wind 8 kt aus 210°

Sichtweite 4000 m

feuchter Dunst

aufgebrochene Bewölkung in 900 ft


Am 11.04. zwischen 03:00 UTC und 12:00 UTC zeitweise mit einer Wahrscheinlichkeit von 30%

Sichtweite 2000 m

schwacher Regen

schwacher Sprühregen

aufgebrochene Bewölkung in 400 ft

TAF EDLP 101100Z 1012/1112 09004KT 8000 BKN020 TEMPO 1012/1103 4000 RA BKN010 BECMG 1023/1103 21008KT BECMG 1103/1106 4000 BR BKN009 PROB30 TEMPO 1103/1112 2000 -RADZ BKN004
Impressum